Time;durP1;ratioP1;P1;durP2;ratioP2;P2;SDS_P1;SDS_P2;PMS_P1;PMS_P2;Temp;Humidity;BMP_temperature;BMP_pressure;BME280_temperature;BME280_humidity;BME280_pressure;Samples;Min_cycle;Max_cycle;Signal;HPM_P1;HPM_P2
2022/04/21 00:00:13;;;;;;;9.70;9.40;;;9.00;99.90;;;;;;5105922;28;20229;-83
2022/04/21 00:02:42;;;;;;;9.50;9.20;;;9.00;99.90;;;;;;5104711;28;20229;-82
2022/04/21 00:05:15;;;;;;;9.80;9.50;;;8.90;99.90;;;;;;5104319;28;20232;-83
2022/04/21 00:07:43;;;;;;;9.60;9.30;;;8.90;99.90;;;;;;5104744;28;20229;-82
2022/04/21 00:10:11;;;;;;;9.40;9.10;;;8.80;99.90;;;;;;5103517;28;20330;-83
2022/04/21 00:12:40;;;;;;;9.60;9.30;;;8.70;99.90;;;;;;5102933;28;20229;-83
2022/04/21 00:15:10;;;;;;;9.70;9.40;;;8.70;99.90;;;;;;5103606;28;20237;-83
2022/04/21 00:17:39;;;;;;;9.47;9.17;;;8.70;99.90;;;;;;5102990;28;20233;-82
2022/04/21 00:20:11;;;;;;;9.40;9.10;;;8.70;99.90;;;;;;5103925;28;20291;-82
2022/04/21 00:25:26;;;;;;;9.00;8.77;;;8.60;99.90;;;;;;5114946;27;20212;-83
2022/04/21 00:27:55;;;;;;;9.70;9.40;;;8.60;99.90;;;;;;5107386;28;20237;-82
2022/04/21 00:30:24;;;;;;;9.60;9.30;;;8.50;99.90;;;;;;5106189;28;20260;-83
2022/04/21 00:32:53;;;;;;;9.50;9.20;;;8.50;99.90;;;;;;5104797;28;20241;-82
2022/04/21 00:35:31;;;;;;;9.50;9.20;;;8.50;99.90;;;;;;5104508;28;20244;-82
2022/04/21 00:38:02;;;;;;;9.47;9.17;;;8.40;99.90;;;;;;5106948;28;20229;-82
2022/04/21 00:40:32;;;;;;;9.63;9.33;;;8.40;99.90;;;;;;5106934;28;20241;-82
2022/04/21 00:43:01;;;;;;;9.53;9.23;;;8.40;99.90;;;;;;5106686;28;20329;-83
2022/04/21 00:45:31;;;;;;;9.13;8.87;;;8.50;99.90;;;;;;5106514;28;20233;-83
2022/04/21 00:48:02;;;;;;;9.50;9.20;;;8.50;99.90;;;;;;5106575;28;20308;-82
2022/04/21 00:50:37;;;;;;;9.20;8.90;;;8.40;99.90;;;;;;5106164;28;20230;-82
2022/04/21 00:53:06;;;;;;;9.33;9.03;;;8.40;99.90;;;;;;5105092;28;20232;-83
2022/04/21 00:55:35;;;;;;;9.50;9.20;;;8.40;99.90;;;;;;5105093;28;20256;-83
2022/04/21 00:58:07;;;;;;;9.60;9.30;;;8.40;99.90;;;;;;5106317;28;20310;-83
2022/04/21 01:00:34;;;;;;;9.70;9.40;;;8.40;99.90;;;;;;5106088;28;20244;-83
2022/04/21 01:03:01;;;;;;;9.50;9.20;;;8.40;99.90;;;;;;5106412;28;20271;-83
2022/04/21 01:05:33;;;;;;;9.37;9.07;;;8.40;99.90;;;;;;5106394;28;20245;-83
2022/04/21 01:08:04;;;;;;;9.30;9.00;;;8.50;99.90;;;;;;5105889;28;20233;-82
2022/04/21 01:10:34;;;;;;;9.27;8.97;;;8.40;99.90;;;;;;5106530;28;20233;-83
2022/04/21 01:13:06;;;;;;;9.13;8.87;;;8.40;99.90;;;;;;5105375;28;20229;-83
2022/04/21 01:15:34;;;;;;;9.40;9.10;;;8.50;99.90;;;;;;5105854;28;20234;-83
2022/04/21 01:18:03;;;;;;;9.20;8.90;;;8.50;99.90;;;;;;5105858;28;20221;-82
2022/04/21 01:20:35;;;;;;;9.17;8.87;;;8.50;99.90;;;;;;5106722;28;20260;-83
2022/04/21 01:23:02;;;;;;;9.33;9.03;;;8.60;99.90;;;;;;5105732;28;20676;-82
2022/04/21 01:25:40;;;;;;;9.20;8.90;;;8.50;99.90;;;;;;5105748;28;20225;-82
2022/04/21 01:28:10;;;;;;;9.63;9.33;;;8.50;99.90;;;;;;5106398;28;20225;-83
2022/04/21 01:30:39;;;;;;;9.60;9.30;;;8.50;99.90;;;;;;5105592;28;20240;-82
2022/04/21 01:33:08;;;;;;;9.67;9.37;;;8.50;99.90;;;;;;5105476;28;20596;-82
2022/04/21 01:35:40;;;;;;;9.60;9.30;;;8.50;99.90;;;;;;5104261;28;20233;-82
2022/04/21 01:41:11;;;;;;;9.50;9.20;;;8.50;99.90;;;;;;5104996;28;20257;-82
2022/04/21 01:43:43;;;;;;;9.73;9.43;;;8.50;99.90;;;;;;5105697;28;20697;-82
2022/04/21 01:46:11;;;;;;;9.60;9.30;;;8.50;99.90;;;;;;5105420;28;20945;-82
2022/04/21 01:48:40;;;;;;;9.67;9.37;;;8.40;99.90;;;;;;5106326;28;20233;-83
2022/04/21 01:51:12;;;;;;;9.60;9.30;;;8.40;99.90;;;;;;5104857;28;20225;-82
2022/04/21 01:53:39;;;;;;;9.63;9.33;;;8.40;99.90;;;;;;5113130;28;20225;-82
2022/04/21 01:56:09;;;;;;;9.20;8.90;;;8.50;99.90;;;;;;5110899;28;20244;-83
2022/04/21 01:58:38;;;;;;;9.20;8.90;;;8.50;99.90;;;;;;5107055;28;20245;-82
2022/04/21 02:01:08;;;;;;;9.07;8.83;;;8.40;99.90;;;;;;5106583;28;20240;-83
2022/04/21 02:03:37;;;;;;;9.07;8.83;;;8.50;99.90;;;;;;5106510;28;20233;-82
2022/04/21 02:06:07;;;;;;;9.00;8.80;;;8.50;99.90;;;;;;5105970;28;20230;-82
2022/04/21 02:08:38;;;;;;;9.30;9.00;;;8.50;99.90;;;;;;5105909;28;20283;-82
2022/04/21 02:11:06;;;;;;;9.50;9.20;;;8.40;99.90;;;;;;5106636;28;20252;-83
2022/04/21 02:13:35;;;;;;;9.20;8.90;;;8.40;99.90;;;;;;5105664;28;20233;-83
2022/04/21 02:16:04;;;;;;;9.30;9.00;;;8.50;99.90;;;;;;5106102;28;20236;-82
2022/04/21 02:18:33;;;;;;;9.60;9.30;;;8.50;99.90;;;;;;5106418;28;20225;-82
2022/04/21 02:21:02;;;;;;;9.40;9.10;;;8.50;99.90;;;;;;5105373;28;20256;-83
2022/04/21 02:23:32;;;;;;;9.30;9.00;;;8.60;99.90;;;;;;5105432;28;20234;-83
2022/04/21 02:26:11;;;;;;;9.63;9.33;;;8.60;99.90;;;;;;5105007;28;20237;-83
2022/04/21 02:28:39;;;;;;;9.30;9.00;;;8.50;99.90;;;;;;5112915;27;20221;-82
2022/04/21 02:31:09;;;;;;;9.27;8.97;;;8.60;99.90;;;;;;5120200;27;20217;-82
2022/04/21 02:33:38;;;;;;;9.33;9.03;;;8.50;99.90;;;;;;5110125;28;20229;-82
2022/04/21 02:36:08;;;;;;;9.40;9.10;;;8.50;99.90;;;;;;5107683;28;20252;-83
2022/04/21 02:38:38;;;;;;;9.40;9.10;;;8.60;99.90;;;;;;5107782;28;20247;-82
2022/04/21 02:41:17;;;;;;;9.33;9.03;;;8.50;99.90;;;;;;5113943;28;20260;-82
2022/04/21 02:43:45;;;;;;;9.13;8.87;;;8.60;99.90;;;;;;5116292;28;20224;-82
2022/04/21 02:46:16;;;;;;;9.33;9.03;;;8.50;99.90;;;;;;5107064;28;20271;-82
2022/04/21 02:48:44;;;;;;;8.97;8.77;;;8.50;99.90;;;;;;5105988;28;20244;-82
2022/04/21 02:51:15;;;;;;;9.40;9.10;;;8.50;99.90;;;;;;5107119;28;20222;-82
2022/04/21 02:59:18;;;;;;;9.00;8.80;;;8.60;99.90;;;;;;5105001;28;20210;-82
2022/04/21 03:01:46;;;;;;;9.13;8.90;;;8.60;99.90;;;;;;5103942;28;20229;-82
2022/04/21 03:04:15;;;;;;;9.23;8.93;;;8.60;99.90;;;;;;5103538;28;20225;-82
2022/04/21 03:06:45;;;;;;;9.33;9.03;;;8.50;99.90;;;;;;5104046;28;20222;-82
2022/04/21 03:09:14;;;;;;;8.90;8.70;;;8.40;99.90;;;;;;5103156;28;20265;-83
2022/04/21 03:11:55;;;;;;;9.57;9.27;;;8.40;99.90;;;;;;5103793;28;20233;-83
2022/04/21 03:14:31;;;;;;;9.60;9.30;;;8.40;99.90;;;;;;5104182;28;20217;-83
2022/04/21 03:17:01;;;;;;;9.50;9.20;;;8.40;99.90;;;;;;5102541;28;20239;-83
2022/04/21 03:19:33;;;;;;;9.30;9.00;;;8.40;99.90;;;;;;5102382;28;20229;-82
2022/04/21 03:24:49;;;;;;;9.50;9.20;;;8.40;99.90;;;;;;5103453;28;20205;-82
2022/04/21 03:27:20;;;;;;;9.40;9.10;;;8.50;99.90;;;;;;5103172;28;20280;-82
2022/04/21 03:29:47;;;;;;;9.70;9.40;;;8.40;99.90;;;;;;5101889;28;20229;-82
2022/04/21 03:32:17;;;;;;;9.50;9.20;;;8.40;99.90;;;;;;5100852;28;20276;-82
2022/04/21 03:34:46;;;;;;;9.70;9.40;;;8.30;99.90;;;;;;5102446;28;20234;-82
2022/04/21 03:37:15;;;;;;;9.60;9.30;;;8.20;99.90;;;;;;5105486;28;20252;-82
2022/04/21 03:39:45;;;;;;;9.70;9.40;;;8.20;99.90;;;;;;5104612;28;20673;-82
2022/04/21 03:42:23;;;;;;;9.70;9.40;;;8.00;99.90;;;;;;5104121;28;20316;-82
2022/04/21 03:44:52;;;;;;;9.80;9.50;;;7.90;99.90;;;;;;5102677;28;20237;-82
2022/04/21 03:47:22;;;;;;;9.77;9.47;;;7.80;99.90;;;;;;5102718;28;20226;-82
2022/04/21 03:49:51;;;;;;;9.60;9.30;;;7.80;99.90;;;;;;5103133;28;20229;-82
2022/04/21 03:52:20;;;;;;;9.53;9.23;;;7.90;99.90;;;;;;5102552;28;20973;-82
2022/04/21 03:54:50;;;;;;;9.80;9.50;;;7.80;99.90;;;;;;5101476;28;20263;-82
2022/04/21 03:57:32;;;;;;;9.80;9.50;;;7.70;99.90;;;;;;5103084;28;20248;-83
2022/04/21 04:00:00;;;;;;;9.80;9.50;;;7.70;99.90;;;;;;5102838;28;20230;-82
2022/04/21 04:02:27;;;;;;;9.80;9.50;;;7.80;99.90;;;;;;5102560;28;20287;-82
2022/04/21 04:04:56;;;;;;;10.30;10.00;;;7.80;99.90;;;;;;5102322;28;20268;-81
2022/04/21 04:15:39;;;;;;;10.70;10.40;;;8.10;99.90;;;;;;5105032;28;20218;-82
2022/04/21 04:18:08;;;;;;;10.90;10.60;;;8.10;99.90;;;;;;5105107;28;20226;-82
2022/04/21 04:20:37;;;;;;;10.83;10.53;;;8.10;99.90;;;;;;5105375;28;20231;-82
2022/04/21 04:23:07;;;;;;;10.90;10.60;;;8.10;99.90;;;;;;5105397;28;20244;-82
2022/04/21 04:25:36;;;;;;;10.80;10.50;;;8.10;99.90;;;;;;5105729;28;20229;-82
2022/04/21 04:30:52;;;;;;;10.70;10.40;;;8.20;99.90;;;;;;5105461;28;20315;-82
2022/04/21 04:33:22;;;;;;;10.50;10.20;;;8.20;99.90;;;;;;5105342;28;20237;-82
2022/04/21 04:35:51;;;;;;;10.40;10.10;;;8.30;99.90;;;;;;5107259;28;20255;-82
2022/04/21 04:38:21;;;;;;;10.30;10.00;;;8.30;99.90;;;;;;5105735;28;20240;-82
2022/04/21 04:40:50;;;;;;;10.47;10.17;;;8.30;99.90;;;;;;5105883;28;20230;-82
2022/04/21 04:43:22;;;;;;;10.43;10.13;;;8.40;99.90;;;;;;5106223;28;20250;-82
2022/04/21 04:48:36;;;;;;;10.40;10.10;;;8.40;99.90;;;;;;5106579;28;20221;-82
2022/04/21 04:51:06;;;;;;;10.10;9.80;;;8.40;99.90;;;;;;5106095;28;20256;-83
2022/04/21 04:53:36;;;;;;;10.40;10.10;;;8.50;99.90;;;;;;5116113;28;20263;-82
2022/04/21 04:56:04;;;;;;;10.43;10.13;;;8.40;99.90;;;;;;5126800;22;20264;-81
2022/04/21 04:58:33;;;;;;;10.47;10.17;;;8.50;99.90;;;;;;5101203;28;20237;-81
2022/04/21 05:01:03;;;;;;;10.60;10.30;;;8.50;99.90;;;;;;5100751;28;20251;-81
2022/04/21 05:03:32;;;;;;;10.60;10.30;;;8.50;99.90;;;;;;5102361;28;20237;-81
2022/04/21 05:05:59;;;;;;;10.50;10.20;;;8.50;99.90;;;;;;5100995;28;20237;-81
2022/04/21 05:08:27;;;;;;;10.63;10.33;;;8.50;99.90;;;;;;5111622;28;20206;-81
2022/04/21 05:10:55;;;;;;;10.80;10.50;;;8.50;99.90;;;;;;5121014;28;20247;-82
2022/04/21 05:13:23;;;;;;;10.47;10.17;;;8.50;99.90;;;;;;5109773;28;20233;-81
2022/04/21 05:15:53;;;;;;;10.57;10.27;;;8.50;99.90;;;;;;5103655;28;20252;-82
2022/04/21 05:18:21;;;;;;;10.80;10.50;;;8.50;99.90;;;;;;5104439;28;20218;-81
2022/04/21 05:20:50;;;;;;;11.03;10.73;;;8.50;99.90;;;;;;5102719;28;20945;-81
2022/04/21 05:23:21;;;;;;;11.20;10.90;;;8.50;99.90;;;;;;5102081;28;20233;-81
2022/04/21 05:25:51;;;;;;;11.00;10.70;;;8.50;99.90;;;;;;5102522;28;20240;-81
2022/04/21 05:28:20;;;;;;;11.13;10.83;;;8.60;99.90;;;;;;5102517;28;20256;-81
2022/04/21 05:30:58;;;;;;;10.80;10.50;;;8.60;99.90;;;;;;5102179;28;20229;-82
2022/04/21 05:33:29;;;;;;;10.77;10.47;;;8.60;99.90;;;;;;5101728;28;20237;-81
2022/04/21 05:36:00;;;;;;;10.50;10.20;;;8.60;99.90;;;;;;5101592;28;20726;-81
2022/04/21 05:38:29;;;;;;;10.70;10.40;;;8.70;99.90;;;;;;5102038;28;20249;-81
2022/04/21 05:40:57;;;;;;;10.83;10.53;;;8.70;99.90;;;;;;5100896;28;20251;-82
2022/04/21 05:43:40;;;;;;;10.80;10.50;;;8.80;99.90;;;;;;5101061;28;20276;-81
2022/04/21 05:46:09;;;;;;;10.90;10.60;;;8.80;99.90;;;;;;5100935;28;20233;-81
2022/04/21 05:48:40;;;;;;;10.77;10.47;;;8.80;99.90;;;;;;5101279;28;20234;-81
2022/04/21 05:51:10;;;;;;;10.53;10.23;;;8.90;99.90;;;;;;5100589;28;20238;-82
2022/04/21 05:53:40;;;;;;;10.80;10.50;;;8.90;99.90;;;;;;5100040;28;20237;-81
2022/04/21 05:56:10;;;;;;;10.70;10.40;;;8.80;99.90;;;;;;5100029;28;20241;-81
2022/04/21 05:58:38;;;;;;;10.80;10.50;;;8.80;99.90;;;;;;5100568;28;20225;-81
2022/04/21 06:01:08;;;;;;;10.77;10.47;;;8.70;99.90;;;;;;5101133;28;20229;-81
2022/04/21 06:03:38;;;;;;;10.90;10.60;;;8.70;99.90;;;;;;5102370;28;20239;-81
2022/04/21 06:06:06;;;;;;;10.80;10.50;;;8.60;99.90;;;;;;5112420;27;20225;-82
2022/04/21 06:08:34;;;;;;;10.70;10.40;;;8.70;99.90;;;;;;5102413;28;20233;-82
2022/04/21 06:11:02;;;;;;;10.70;10.40;;;8.70;99.90;;;;;;5101071;28;20272;-82
2022/04/21 06:13:31;;;;;;;10.70;10.40;;;8.80;99.90;;;;;;5101297;28;20310;-82
2022/04/21 06:16:00;;;;;;;10.67;10.37;;;8.90;99.90;;;;;;5101427;28;20259;-80
2022/04/21 06:18:28;;;;;;;10.70;10.40;;;9.00;99.90;;;;;;5100769;28;20214;-82
2022/04/21 06:20:58;;;;;;;10.73;10.43;;;9.10;99.90;;;;;;5100692;28;20230;-82
2022/04/21 06:23:25;;;;;;;10.73;10.43;;;9.10;99.90;;;;;;5100310;28;20256;-82
2022/04/21 06:25:58;;;;;;;10.37;10.07;;;9.20;99.90;;;;;;5100235;28;20233;-81
2022/04/21 06:28:27;;;;;;;10.60;10.30;;;9.30;99.90;;;;;;5101176;28;20316;-81
2022/04/21 06:30:54;;;;;;;10.50;10.20;;;9.40;99.90;;;;;;5100510;28;20233;-82
2022/04/21 06:33:23;;;;;;;10.50;10.20;;;9.40;99.90;;;;;;5099741;28;20234;-82
2022/04/21 06:35:51;;;;;;;10.37;10.07;;;9.40;99.90;;;;;;5099478;28;20291;-81
2022/04/21 06:38:20;;;;;;;10.57;10.27;;;9.50;99.90;;;;;;5100620;28;20260;-82
2022/04/21 06:40:48;;;;;;;10.80;10.50;;;9.70;99.90;;;;;;5100190;28;20229;-81
2022/04/21 06:48:49;;;;;;;10.50;10.20;;;9.60;99.90;;;;;;5100425;28;20222;-81
2022/04/21 06:51:18;;;;;;;10.60;10.30;;;9.60;99.90;;;;;;5099876;28;20237;-82
2022/04/21 06:53:48;;;;;;;10.70;10.40;;;9.80;99.90;;;;;;5099916;28;20263;-82
2022/04/21 06:56:16;;;;;;;10.50;10.20;;;9.80;99.90;;;;;;5098955;28;20240;-83
2022/04/21 06:58:43;;;;;;;10.70;10.40;;;9.70;99.90;;;;;;5099896;28;20226;-83
2022/04/21 07:01:11;;;;;;;10.67;10.37;;;9.70;99.90;;;;;;5099361;28;20229;-83
2022/04/21 07:03:40;;;;;;;10.70;10.40;;;9.90;99.90;;;;;;5099503;28;20238;-82
2022/04/21 07:06:08;;;;;;;10.77;10.47;;;10.00;99.90;;;;;;5099133;28;20245;-83
2022/04/21 07:08:36;;;;;;;10.80;10.50;;;10.20;99.90;;;;;;5099893;28;20213;-83
2022/04/21 07:11:05;;;;;;;10.60;10.30;;;10.30;99.90;;;;;;5099615;28;20229;-84
2022/04/21 07:13:33;;;;;;;10.70;10.40;;;10.50;99.90;;;;;;5102425;28;20238;-80
2022/04/21 07:16:01;;;;;;;10.53;10.23;;;10.70;99.90;;;;;;5100436;28;20237;-81
2022/04/21 07:18:28;;;;;;;10.40;10.10;;;10.70;99.90;;;;;;5100988;28;20232;-81
2022/04/21 07:20:56;;;;;;;10.60;10.30;;;10.60;99.90;;;;;;5100366;28;20233;-84
2022/04/21 07:23:24;;;;;;;10.60;10.30;;;10.60;99.90;;;;;;5101221;28;20233;-81
2022/04/21 07:25:52;;;;;;;10.77;10.47;;;10.70;99.90;;;;;;5102364;28;20242;-82
2022/04/21 07:28:21;;;;;;;10.83;10.53;;;10.80;99.90;;;;;;5099720;28;20249;-81
2022/04/21 07:30:49;;;;;;;10.80;10.50;;;11.00;99.90;;;;;;5100613;28;20229;-81
2022/04/21 07:33:18;;;;;;;10.80;10.50;;;11.20;99.90;;;;;;5100316;28;20292;-81
2022/04/21 07:35:46;;;;;;;10.83;10.53;;;11.30;99.90;;;;;;5099897;28;20234;-81
2022/04/21 07:38:14;;;;;;;10.93;10.63;;;11.40;99.90;;;;;;5100234;28;20248;-81
2022/04/21 07:40:42;;;;;;;10.80;10.50;;;11.50;99.90;;;;;;5100531;28;20229;-82
2022/04/21 07:43:09;;;;;;;10.37;10.07;;;11.50;99.90;;;;;;5099946;28;20241;-81
2022/04/21 07:45:40;;;;;;;10.63;10.33;;;11.50;99.90;;;;;;5101020;28;20225;-81
2022/04/21 07:48:09;;;;;;;10.13;9.83;;;11.60;99.90;;;;;;5113271;27;20215;-82
2022/04/21 07:50:39;;;;;;;10.13;9.83;;;11.60;99.90;;;;;;5121697;27;20221;-81
2022/04/21 07:53:15;;;;;;;10.43;10.13;;;11.70;99.90;;;;;;5115583;28;20295;-82
2022/04/21 07:55:45;;;;;;;10.23;9.93;;;11.60;99.90;;;;;;5102992;28;20248;-82
2022/04/21 07:58:13;;;;;;;10.67;10.37;;;11.60;99.90;;;;;;5103759;28;20267;-81
2022/04/21 08:00:44;;;;;;;10.23;9.93;;;11.80;99.90;;;;;;5103525;28;20291;-82
2022/04/21 08:03:12;;;;;;;10.30;10.00;;;11.70;99.90;;;;;;5113521;28;20233;-81
2022/04/21 08:05:41;;;;;;;10.00;9.70;;;11.80;99.90;;;;;;5103681;28;20244;-81
2022/04/21 08:08:11;;;;;;;10.40;10.10;;;12.00;99.90;;;;;;5103628;28;20689;-82
2022/04/21 08:10:38;;;;;;;10.07;9.77;;;12.00;99.90;;;;;;5102906;28;20229;-82
2022/04/21 08:13:07;;;;;;;10.20;9.90;;;12.00;99.90;;;;;;5102831;28;20236;-82
2022/04/21 08:15:36;;;;;;;10.30;10.00;;;12.20;99.90;;;;;;5102863;28;20263;-82
2022/04/21 08:18:09;;;;;;;10.37;10.07;;;12.20;99.90;;;;;;5103772;28;20226;-82
2022/04/21 08:20:36;;;;;;;10.53;10.23;;;12.30;99.90;;;;;;5102577;28;20240;-81
2022/04/21 08:23:05;;;;;;;10.40;10.10;;;12.50;99.90;;;;;;5102644;28;20296;-82
2022/04/21 08:33:54;;;;;;;10.60;10.30;;;13.10;99.90;;;;;;5103897;28;20276;-81
2022/04/21 08:36:22;;;;;;;10.70;10.40;;;13.20;99.90;;;;;;5101446;28;20237;-82
2022/04/21 08:38:49;;;;;;;10.73;10.43;;;13.00;99.90;;;;;;5100968;28;20752;-82
2022/04/21 08:41:20;;;;;;;10.50;10.20;;;13.10;99.90;;;;;;5101495;28;20229;-82
2022/04/21 08:43:48;;;;;;;10.83;10.53;;;13.20;99.90;;;;;;5102167;28;20252;-82
2022/04/21 08:46:20;;;;;;;10.57;10.27;;;13.40;99.90;;;;;;5101987;28;20237;-81
2022/04/21 08:48:53;;;;;;;10.77;10.47;;;13.50;99.90;;;;;;5101917;28;20222;-82
2022/04/21 08:51:23;;;;;;;10.67;10.37;;;13.60;99.90;;;;;;5101478;28;20257;-81
2022/04/21 08:53:53;;;;;;;10.77;10.47;;;13.70;99.90;;;;;;5101864;28;20239;-81
2022/04/21 08:56:21;;;;;;;10.60;10.30;;;13.80;99.90;;;;;;5102396;28;20233;-82
2022/04/21 08:58:49;;;;;;;10.70;10.40;;;13.90;99.90;;;;;;5102996;28;20214;-81
2022/04/21 09:01:19;;;;;;;10.70;10.40;;;14.00;99.90;;;;;;5102415;28;20430;-81
2022/04/21 09:03:48;;;;;;;10.80;10.50;;;14.10;99.90;;;;;;5101984;28;20287;-81
2022/04/21 09:06:17;;;;;;;11.00;10.70;;;14.10;99.90;;;;;;5101869;28;20297;-81
2022/04/21 09:08:45;;;;;;;10.90;10.60;;;14.10;99.90;;;;;;5101715;28;20255;-81
2022/04/21 09:11:17;;;;;;;10.63;10.33;;;13.90;99.90;;;;;;5102465;28;20291;-82
2022/04/21 09:13:45;;;;;;;10.80;10.50;;;13.90;99.90;;;;;;5102619;28;20229;-81
2022/04/21 09:16:15;;;;;;;10.97;10.67;;;13.80;99.90;;;;;;5101739;28;20230;-81
2022/04/21 09:18:44;;;;;;;10.83;10.53;;;13.80;99.90;;;;;;5102443;28;20248;-81
2022/04/21 09:21:15;;;;;;;10.63;10.33;;;14.00;99.90;;;;;;5101485;28;20280;-82
2022/04/21 09:23:45;;;;;;;10.90;10.60;;;14.20;99.90;;;;;;5102765;28;20319;-81
2022/04/21 09:26:14;;;;;;;10.18;9.88;;;14.20;99.90;;;;;;5101495;28;20233;-81
2022/04/21 09:28:42;;;;;;;10.10;9.80;;;14.40;99.90;;;;;;5101494;28;20217;-81
2022/04/21 09:31:12;;;;;;;10.45;10.15;;;14.70;99.90;;;;;;5102315;28;20229;-82
2022/04/21 09:33:41;;;;;;;10.30;10.00;;;15.10;99.90;;;;;;5101705;28;20248;-82
2022/04/21 09:36:10;;;;;;;10.63;10.32;;;15.30;99.90;;;;;;5101813;28;20226;-82
2022/04/21 09:38:39;;;;;;;10.40;10.10;;;15.00;99.90;;;;;;5101278;28;20233;-81
2022/04/21 09:41:09;;;;;;;10.70;10.40;;;14.80;99.90;;;;;;5101101;28;20229;-81
2022/04/21 09:43:38;;;;;;;10.52;10.23;;;14.90;99.90;;;;;;5102164;28;20238;-81
2022/04/21 09:46:12;;;;;;;10.35;10.05;;;15.00;99.90;;;;;;5101282;28;20253;-81
2022/04/21 09:48:41;;;;;;;11.10;10.80;;;15.00;99.90;;;;;;5100725;28;20233;-82
2022/04/21 09:51:11;;;;;;;11.13;10.82;;;15.30;99.90;;;;;;5100306;28;20229;-82
2022/04/21 09:53:54;;;;;;;11.32;11.02;;;15.10;99.90;;;;;;5100881;28;20286;-81
2022/04/21 09:56:33;;;;;;;11.07;10.77;;;15.20;99.90;;;;;;5100561;28;20297;-81
2022/04/21 09:59:02;;;;;;;11.15;10.85;;;15.10;99.90;;;;;;5110460;28;20233;-81
2022/04/21 10:01:30;;;;;;;11.02;10.73;;;15.50;99.90;;;;;;5102801;28;20237;-82
2022/04/21 10:03:58;;;;;;;11.10;10.80;;;16.00;99.90;;;;;;5103977;28;20698;-82
2022/04/21 10:06:26;;;;;;;11.20;10.90;;;16.20;99.90;;;;;;5120097;27;20290;-82
2022/04/21 10:08:54;;;;;;;11.20;10.90;;;16.40;99.90;;;;;;5120300;27;20257;-82
2022/04/21 10:11:24;;;;;;;11.07;10.77;;;16.10;99.90;;;;;;5120747;27;20217;-82
2022/04/21 10:13:56;;;;;;;10.98;10.68;;;16.20;99.90;;;;;;5120485;28;20233;-82
2022/04/21 10:16:28;;;;;;;11.05;10.75;;;16.00;99.90;;;;;;5120371;27;20229;-81
2022/04/21 10:18:58;;;;;;;11.25;10.95;;;16.00;99.90;;;;;;5121085;27;20202;-81
2022/04/21 10:21:32;;;;;;;11.10;10.80;;;16.20;99.90;;;;;;5120690;27;20244;-81
2022/04/21 10:24:00;;;;;;;11.18;10.88;;;16.40;99.90;;;;;;5121080;27;20217;-83
2022/04/21 10:26:40;;;;;;;11.00;10.70;;;16.60;99.90;;;;;;5120440;27;20214;-81
2022/04/21 10:29:17;;;;;;;11.00;10.70;;;16.70;99.90;;;;;;5120420;27;20209;-83
2022/04/21 10:31:54;;;;;;;11.30;11.00;;;16.80;99.90;;;;;;5120441;27;20221;-81
2022/04/21 10:34:32;;;;;;;11.05;10.75;;;17.00;99.90;;;;;;5120174;27;20231;-81
2022/04/21 10:37:11;;;;;;;10.88;10.57;;;17.20;99.90;;;;;;5111841;28;21119;-81
2022/04/21 10:39:39;;;;;;;10.95;10.65;;;17.10;99.90;;;;;;5108343;28;21059;-82
2022/04/21 10:42:15;;;;;;;10.88;10.57;;;17.20;99.90;;;;;;5105019;28;20294;-81
2022/04/21 10:44:47;;;;;;;11.05;10.75;;;17.50;99.90;;;;;;5100660;28;20296;-81
2022/04/21 10:47:36;;;;;;;11.20;10.90;;;17.50;99.90;;;;;;5101144;28;20255;-81
2022/04/21 10:50:16;;;;;;;11.20;10.90;;;17.60;99.90;;;;;;5101332;28;20239;-82
2022/04/21 10:58:57;;;;;;;10.98;10.68;;;17.70;99.90;;;;;;5087691;28;20226;-82
2022/04/21 11:01:33;;;;;;;11.10;10.80;;;17.50;99.90;;;;;;5087588;28;20230;-81
2022/04/21 11:04:13;;;;;;;10.45;10.15;;;17.40;99.90;;;;;;5086427;28;20229;-81
2022/04/21 11:06:44;;;;;;;10.75;10.45;;;17.40;99.90;;;;;;5089926;28;20238;-81
2022/04/21 11:09:50;;;;;;;10.85;10.55;;;17.50;99.90;;;;;;5084851;28;20288;-80
2022/04/21 11:12:41;;;;;;;10.80;10.50;;;17.40;99.90;;;;;;5084923;28;20257;-81
2022/04/21 11:15:38;;;;;;;10.80;10.50;;;17.20;99.90;;;;;;5087929;28;20238;-83
2022/04/21 11:18:18;;;;;;;11.02;10.73;;;17.40;99.90;;;;;;5086585;28;20230;-81
2022/04/21 11:20:48;;;;;;;11.40;11.10;;;17.80;99.90;;;;;;5084855;28;20291;-82
2022/04/21 11:23:25;;;;;;;11.18;10.88;;;18.00;99.90;;;;;;5086957;28;20214;-82
2022/04/21 11:26:03;;;;;;;11.30;11.00;;;18.20;99.90;;;;;;5086828;28;20241;-82
2022/04/21 11:28:34;;;;;;;11.23;10.93;;;18.40;99.90;;;;;;5087411;28;20226;-82
2022/04/21 11:31:04;;;;;;;11.05;10.75;;;18.90;99.90;;;;;;5087311;28;20233;-82
2022/04/21 11:33:35;;;;;;;11.52;11.15;;;18.90;99.90;;;;;;5086428;28;20248;-82
2022/04/21 11:36:11;;;;;;;11.23;10.93;;;19.20;99.90;;;;;;5086755;28;20234;-82
2022/04/21 11:38:43;;;;;;;10.95;10.65;;;19.10;99.90;;;;;;5095667;28;20234;-81
2022/04/21 11:41:19;;;;;;;10.80;10.50;;;18.90;99.90;;;;;;5094229;28;20218;-83
2022/04/21 11:43:47;;;;;;;10.90;10.60;;;18.90;99.90;;;;;;5088679;28;20229;-83
2022/04/21 11:46:18;;;;;;;10.95;10.65;;;18.70;99.90;;;;;;5087031;28;20226;-83
2022/04/21 11:49:06;;;;;;;10.82;10.52;;;18.90;99.90;;;;;;5086218;28;20218;-83
2022/04/21 11:51:34;;;;;;;11.15;10.85;;;18.50;99.90;;;;;;5086196;28;20278;-82
2022/04/21 11:54:05;;;;;;;11.55;11.15;;;18.50;99.90;;;;;;5086666;28;20249;-82
2022/04/21 11:56:33;;;;;;;11.25;10.95;;;18.30;99.90;;;;;;5085394;28;20234;-83
2022/04/21 11:59:10;;;;;;;11.07;10.77;;;18.60;99.90;;;;;;5087979;28;20234;-82
2022/04/21 12:07:24;;;;;;;10.60;10.30;;;18.70;99.90;;;;;;5088639;28;20226;-82
2022/04/21 12:09:52;;;;;;;10.90;10.60;;;18.40;99.90;;;;;;5090756;28;20253;-82
2022/04/21 12:12:22;;;;;;;10.88;10.57;;;18.40;99.90;;;;;;5095694;28;20237;-82
2022/04/21 12:14:51;;;;;;;11.00;10.70;;;18.30;99.90;;;;;;5090369;28;20269;-82
2022/04/21 12:17:20;;;;;;;10.70;10.40;;;17.90;99.90;;;;;;5086764;28;20226;-81
2022/04/21 12:20:00;;;;;;;11.55;11.15;;;17.60;99.90;;;;;;5088392;28;20230;-83
2022/04/21 12:22:39;;;;;;;11.68;11.27;;;17.40;99.90;;;;;;5087314;28;20222;-82
2022/04/21 12:25:16;;;;;;;11.40;11.10;;;17.20;99.90;;;;;;5087714;28;20222;-82
2022/04/21 12:27:44;;;;;;;10.95;10.65;;;17.00;99.90;;;;;;5085674;28;20257;-82
2022/04/21 12:30:15;;;;;;;10.98;10.68;;;16.90;99.90;;;;;;5084151;28;20230;-81
2022/04/21 12:32:52;;;;;;;10.88;10.57;;;16.90;99.90;;;;;;5085639;28;20278;-82
2022/04/21 12:35:50;;;;;;;10.75;10.45;;;16.80;99.90;;;;;;5089059;28;20221;-81
2022/04/21 12:41:05;;;;;;;10.93;10.63;;;16.60;99.90;;;;;;5094905;28;20313;-81
2022/04/21 12:43:34;;;;;;;10.90;10.60;;;16.60;99.90;;;;;;5090902;28;20308;-84
2022/04/21 12:46:03;;;;;;;10.95;10.65;;;16.40;99.90;;;;;;5089338;28;20238;-82
2022/04/21 12:48:33;;;;;;;11.15;10.85;;;16.50;99.90;;;;;;5089584;28;20229;-82
2022/04/21 12:51:20;;;;;;;11.27;10.98;;;16.40;99.90;;;;;;5089038;28;20241;-82
2022/04/21 12:53:58;;;;;;;11.05;10.75;;;16.40;99.90;;;;;;5088038;28;20282;-83
2022/04/21 12:56:39;;;;;;;10.82;10.52;;;16.40;99.90;;;;;;5087366;28;20218;-82
2022/04/21 12:59:07;;;;;;;10.57;10.27;;;16.50;99.90;;;;;;5088523;28;20304;-82
2022/04/21 13:01:35;;;;;;;10.80;10.50;;;16.40;99.90;;;;;;5088091;28;20234;-82
2022/04/21 13:04:05;;;;;;;10.57;10.27;;;16.60;99.90;;;;;;5087116;28;20221;-82
2022/04/21 13:09:33;;;;;;;10.50;10.20;;;16.60;99.90;;;;;;5198183;27;260786;-81
2022/04/21 13:12:10;;;;;;;10.40;10.10;;;16.50;99.90;;;;;;5207427;27;20297;-81
2022/04/21 13:14:38;;;;;;;10.52;10.23;;;16.30;99.90;;;;;;5206835;27;20664;-81
2022/04/21 13:17:07;;;;;;;10.60;10.30;;;16.10;99.90;;;;;;5193101;27;20237;-80
2022/04/21 13:19:41;;;;;;;11.00;10.70;;;15.80;99.90;;;;;;5182942;27;20226;-81
2022/04/21 13:22:07;;;;;;;11.07;10.77;;;15.60;99.90;;;;;;5186182;27;20258;-81
2022/04/21 13:24:48;;;;;;;11.13;10.82;;;15.70;99.90;;;;;;5184868;27;20223;-81
2022/04/21 13:27:16;;;;;;;10.95;10.65;;;15.80;99.90;;;;;;5184618;27;20244;-81
2022/04/21 13:29:45;;;;;;;10.90;10.60;;;15.80;99.90;;;;;;5184837;27;20233;-81
2022/04/21 13:35:01;;;;;;;10.90;10.60;;;15.80;99.90;;;;;;5184928;27;20207;-82
2022/04/21 13:37:30;;;;;;;10.70;10.40;;;15.90;99.90;;;;;;5184211;27;20227;-80
2022/04/21 13:40:11;;;;;;;10.98;10.68;;;16.10;99.90;;;;;;5184825;27;20242;-81
2022/04/21 13:42:38;;;;;;;11.10;10.80;;;16.20;99.90;;;;;;5184898;27;20230;-81
2022/04/21 13:45:07;;;;;;;10.90;10.60;;;16.20;99.90;;;;;;5184545;27;20227;-81
2022/04/21 13:47:37;;;;;;;10.98;10.68;;;16.00;99.90;;;;;;5184022;27;20231;-82
2022/04/21 13:50:06;;;;;;;10.50;10.20;;;15.60;99.90;;;;;;5183755;27;20227;-82
2022/04/21 13:52:41;;;;;;;10.40;10.10;;;15.40;99.90;;;;;;5184278;27;20227;-83
2022/04/21 13:55:14;;;;;;;10.57;10.27;;;15.40;99.90;;;;;;5196550;27;20211;-80
2022/04/21 13:57:44;;;;;;;10.63;10.32;;;15.10;99.90;;;;;;5194278;27;20223;-82